Ballincollig, Ireland
Current Conditions -  °F | °C
As of 12:00 AM on Saturday 22 Nov 2014 (Local Time) from EICK Reporting Station
Broken Clouds Broken Clouds  
Wind Chill: 50°   Ceiling: 300
Heat Index: 50°   Visibility: 6mi
Dew Point: 50°   Wind: 5mph
Humidity: 100%   Direction: 230°SW
Pressure: 29.62"   Gusts: NA
Location:  51.89°N, 8.59°W
Report Text: EICK 220000Z 23004KT 9999 FEW002 BKN003 10/10 Q1003 BECMG BKN015
Loading
Personal Weather Stations






























Interactive Weather Map New forecast layout! Learn more

10-Day Weather Forecast

Advertisements
Track Severe Weather on mobile